sensor_id;sensor_type;location;lat;lon;timestamp;P1;durP1;ratioP1;P2;durP2;ratioP2
249;SDS011;109;19.806;-70.704;2023-03-12T00:01:55;63.70;;;11.50;;
249;SDS011;109;19.806;-70.704;2023-03-12T00:04:22;34.90;;;11.30;;
249;SDS011;109;19.806;-70.704;2023-03-12T00:06:49;41.33;;;10.13;;
249;SDS011;109;19.806;-70.704;2023-03-12T00:09:15;38.43;;;9.53;;
249;SDS011;109;19.806;-70.704;2023-03-12T00:11:42;36.57;;;9.00;;
249;SDS011;109;19.806;-70.704;2023-03-12T00:14:08;45.03;;;9.30;;
249;SDS011;109;19.806;-70.704;2023-03-12T00:16:35;44.20;;;12.13;;
249;SDS011;109;19.806;-70.704;2023-03-12T00:19:01;44.30;;;12.00;;
249;SDS011;109;19.806;-70.704;2023-03-12T00:21:28;43.00;;;10.63;;
249;SDS011;109;19.806;-70.704;2023-03-12T00:23:54;25.30;;;7.80;;
249;SDS011;109;19.806;-70.704;2023-03-12T00:26:21;40.03;;;8.43;;
249;SDS011;109;19.806;-70.704;2023-03-12T00:28:48;44.80;;;8.70;;
249;SDS011;109;19.806;-70.704;2023-03-12T00:31:30;36.03;;;8.10;;
249;SDS011;109;19.806;-70.704;2023-03-12T00:34:03;19.50;;;6.70;;
249;SDS011;109;19.806;-70.704;2023-03-12T00:36:30;25.17;;;7.40;;
249;SDS011;109;19.806;-70.704;2023-03-12T00:39:04;27.27;;;7.03;;
249;SDS011;109;19.806;-70.704;2023-03-12T00:41:32;21.70;;;7.30;;
249;SDS011;109;19.806;-70.704;2023-03-12T00:44:05;25.80;;;11.33;;
249;SDS011;109;19.806;-70.704;2023-03-12T00:46:32;30.67;;;11.87;;
249;SDS011;109;19.806;-70.704;2023-03-12T00:49:04;36.13;;;12.97;;
249;SDS011;109;19.806;-70.704;2023-03-12T00:51:31;25.33;;;12.83;;
249;SDS011;109;19.806;-70.704;2023-03-12T00:54:03;35.50;;;15.00;;
249;SDS011;109;19.806;-70.704;2023-03-12T00:56:30;41.53;;;18.50;;
249;SDS011;109;19.806;-70.704;2023-03-12T00:59:04;63.37;;;22.40;;
249;SDS011;109;19.806;-70.704;2023-03-12T01:01:30;39.13;;;20.80;;
249;SDS011;109;19.806;-70.704;2023-03-12T01:04:04;52.43;;;21.83;;
249;SDS011;109;19.806;-70.704;2023-03-12T01:06:30;35.70;;;21.10;;
249;SDS011;109;19.806;-70.704;2023-03-12T01:09:04;30.37;;;18.27;;
249;SDS011;109;19.806;-70.704;2023-03-12T01:11:32;33.30;;;17.97;;
249;SDS011;109;19.806;-70.704;2023-03-12T01:14:07;37.67;;;18.23;;
249;SDS011;109;19.806;-70.704;2023-03-12T01:16:34;39.37;;;18.03;;
249;SDS011;109;19.806;-70.704;2023-03-12T01:19:07;29.93;;;16.73;;
249;SDS011;109;19.806;-70.704;2023-03-12T01:21:41;22.37;;;15.20;;
249;SDS011;109;19.806;-70.704;2023-03-12T01:24:14;36.07;;;17.23;;
249;SDS011;109;19.806;-70.704;2023-03-12T01:26:43;31.50;;;15.90;;
249;SDS011;109;19.806;-70.704;2023-03-12T01:29:15;30.30;;;15.03;;
249;SDS011;109;19.806;-70.704;2023-03-12T01:32:02;31.60;;;16.13;;
249;SDS011;109;19.806;-70.704;2023-03-12T01:34:35;25.10;;;16.57;;
249;SDS011;109;19.806;-70.704;2023-03-12T01:37:02;30.60;;;16.17;;
249;SDS011;109;19.806;-70.704;2023-03-12T01:39:36;25.67;;;13.33;;
249;SDS011;109;19.806;-70.704;2023-03-12T01:42:02;33.67;;;13.50;;
249;SDS011;109;19.806;-70.704;2023-03-12T01:44:58;24.03;;;12.80;;
249;SDS011;109;19.806;-70.704;2023-03-12T01:47:32;28.33;;;12.03;;
249;SDS011;109;19.806;-70.704;2023-03-12T01:50:10;24.77;;;10.67;;
249;SDS011;109;19.806;-70.704;2023-03-12T01:52:44;27.43;;;11.73;;
249;SDS011;109;19.806;-70.704;2023-03-12T01:55:11;19.00;;;10.27;;
249;SDS011;109;19.806;-70.704;2023-03-12T01:57:49;16.40;;;9.90;;
249;SDS011;109;19.806;-70.704;2023-03-12T02:00:27;25.57;;;11.87;;
249;SDS011;109;19.806;-70.704;2023-03-12T02:02:57;27.90;;;10.20;;
249;SDS011;109;19.806;-70.704;2023-03-12T02:08:12;23.33;;;11.63;;
249;SDS011;109;19.806;-70.704;2023-03-12T02:10:41;21.87;;;12.80;;
249;SDS011;109;19.806;-70.704;2023-03-12T02:13:14;30.77;;;14.73;;
249;SDS011;109;19.806;-70.704;2023-03-12T02:15:43;34.80;;;15.17;;
249;SDS011;109;19.806;-70.704;2023-03-12T02:18:19;27.83;;;14.67;;
249;SDS011;109;19.806;-70.704;2023-03-12T02:27:11;21.97;;;10.87;;
249;SDS011;109;19.806;-70.704;2023-03-12T02:29:40;19.73;;;10.80;;
249;SDS011;109;19.806;-70.704;2023-03-12T02:32:17;29.67;;;11.30;;
249;SDS011;109;19.806;-70.704;2023-03-12T02:35:01;31.27;;;12.03;;
249;SDS011;109;19.806;-70.704;2023-03-12T02:37:29;27.40;;;14.30;;
249;SDS011;109;19.806;-70.704;2023-03-12T02:40:11;25.43;;;13.93;;
249;SDS011;109;19.806;-70.704;2023-03-12T02:42:50;35.50;;;13.30;;
249;SDS011;109;19.806;-70.704;2023-03-12T02:45:19;23.57;;;12.30;;
249;SDS011;109;19.806;-70.704;2023-03-12T02:47:53;24.37;;;12.93;;
249;SDS011;109;19.806;-70.704;2023-03-12T02:50:27;20.40;;;12.00;;
249;SDS011;109;19.806;-70.704;2023-03-12T02:53:01;26.73;;;13.87;;
249;SDS011;109;19.806;-70.704;2023-03-12T02:55:28;24.63;;;12.53;;
249;SDS011;109;19.806;-70.704;2023-03-12T02:58:01;33.00;;;13.30;;
249;SDS011;109;19.806;-70.704;2023-03-12T03:00:28;21.07;;;11.50;;
249;SDS011;109;19.806;-70.704;2023-03-12T03:03:03;23.60;;;12.37;;
249;SDS011;109;19.806;-70.704;2023-03-12T03:05:29;19.83;;;12.57;;
249;SDS011;109;19.806;-70.704;2023-03-12T03:08:03;22.30;;;11.20;;
249;SDS011;109;19.806;-70.704;2023-03-12T03:10:30;27.83;;;10.97;;
249;SDS011;109;19.806;-70.704;2023-03-12T03:13:04;23.27;;;12.00;;
249;SDS011;109;19.806;-70.704;2023-03-12T03:15:30;25.50;;;12.50;;
249;SDS011;109;19.806;-70.704;2023-03-12T03:18:04;31.93;;;13.80;;
249;SDS011;109;19.806;-70.704;2023-03-12T03:20:38;31.77;;;14.00;;
249;SDS011;109;19.806;-70.704;2023-03-12T03:23:12;29.87;;;13.73;;
249;SDS011;109;19.806;-70.704;2023-03-12T03:25:39;31.40;;;15.83;;
249;SDS011;109;19.806;-70.704;2023-03-12T03:28:12;47.10;;;16.17;;
249;SDS011;109;19.806;-70.704;2023-03-12T03:30:38;32.43;;;14.80;;
249;SDS011;109;19.806;-70.704;2023-03-12T03:33:12;28.43;;;14.80;;
249;SDS011;109;19.806;-70.704;2023-03-12T03:35:38;26.10;;;13.33;;
249;SDS011;109;19.806;-70.704;2023-03-12T03:38:12;23.40;;;12.60;;
249;SDS011;109;19.806;-70.704;2023-03-12T03:40:38;27.10;;;12.13;;
249;SDS011;109;19.806;-70.704;2023-03-12T03:43:12;20.10;;;9.80;;
249;SDS011;109;19.806;-70.704;2023-03-12T03:45:38;18.80;;;9.27;;
249;SDS011;109;19.806;-70.704;2023-03-12T03:48:12;14.37;;;8.70;;
249;SDS011;109;19.806;-70.704;2023-03-12T03:50:40;15.23;;;8.80;;
249;SDS011;109;19.806;-70.704;2023-03-12T03:53:14;14.73;;;7.93;;
249;SDS011;109;19.806;-70.704;2023-03-12T03:55:40;11.83;;;7.70;;
249;SDS011;109;19.806;-70.704;2023-03-12T03:58:14;18.13;;;8.10;;
249;SDS011;109;19.806;-70.704;2023-03-12T04:00:45;20.03;;;8.50;;
249;SDS011;109;19.806;-70.704;2023-03-12T04:03:19;13.87;;;7.97;;
249;SDS011;109;19.806;-70.704;2023-03-12T04:05:45;10.20;;;6.83;;
249;SDS011;109;19.806;-70.704;2023-03-12T04:08:19;17.43;;;8.20;;
249;SDS011;109;19.806;-70.704;2023-03-12T04:10:46;16.90;;;8.07;;
249;SDS011;109;19.806;-70.704;2023-03-12T04:13:19;12.87;;;7.60;;
249;SDS011;109;19.806;-70.704;2023-03-12T04:15:54;15.13;;;7.73;;
249;SDS011;109;19.806;-70.704;2023-03-12T04:18:27;20.50;;;8.27;;
249;SDS011;109;19.806;-70.704;2023-03-12T04:20:54;12.53;;;6.93;;
249;SDS011;109;19.806;-70.704;2023-03-12T04:23:28;19.00;;;7.50;;
249;SDS011;109;19.806;-70.704;2023-03-12T04:25:55;24.60;;;7.73;;
249;SDS011;109;19.806;-70.704;2023-03-12T04:28:28;21.00;;;8.13;;
249;SDS011;109;19.806;-70.704;2023-03-12T04:30:57;15.90;;;8.23;;
249;SDS011;109;19.806;-70.704;2023-03-12T04:33:37;16.93;;;7.83;;
249;SDS011;109;19.806;-70.704;2023-03-12T04:36:12;21.67;;;8.30;;
249;SDS011;109;19.806;-70.704;2023-03-12T04:38:42;15.07;;;7.97;;
249;SDS011;109;19.806;-70.704;2023-03-12T04:41:19;14.17;;;8.03;;
249;SDS011;109;19.806;-70.704;2023-03-12T04:44:09;12.30;;;7.87;;
249;SDS011;109;19.806;-70.704;2023-03-12T04:46:43;23.10;;;9.40;;
249;SDS011;109;19.806;-70.704;2023-03-12T04:49:13;15.40;;;7.60;;
249;SDS011;109;19.806;-70.704;2023-03-12T04:51:46;16.23;;;7.90;;
249;SDS011;109;19.806;-70.704;2023-03-12T04:54:12;15.13;;;9.17;;
249;SDS011;109;19.806;-70.704;2023-03-12T04:56:55;15.00;;;8.17;;
249;SDS011;109;19.806;-70.704;2023-03-12T04:59:41;13.07;;;6.70;;
249;SDS011;109;19.806;-70.704;2023-03-12T05:02:15;12.00;;;7.10;;
249;SDS011;109;19.806;-70.704;2023-03-12T05:04:41;17.97;;;9.83;;
249;SDS011;109;19.806;-70.704;2023-03-12T05:07:15;9.10;;;6.20;;
249;SDS011;109;19.806;-70.704;2023-03-12T05:09:41;13.50;;;7.07;;
249;SDS011;109;19.806;-70.704;2023-03-12T05:12:15;17.60;;;7.50;;
249;SDS011;109;19.806;-70.704;2023-03-12T05:14:48;14.93;;;7.30;;
249;SDS011;109;19.806;-70.704;2023-03-12T05:17:22;11.53;;;7.20;;
249;SDS011;109;19.806;-70.704;2023-03-12T05:19:48;25.60;;;8.50;;
249;SDS011;109;19.806;-70.704;2023-03-12T05:22:22;13.67;;;7.93;;
249;SDS011;109;19.806;-70.704;2023-03-12T05:24:48;11.40;;;7.07;;
249;SDS011;109;19.806;-70.704;2023-03-12T05:27:22;13.27;;;7.03;;
249;SDS011;109;19.806;-70.704;2023-03-12T05:29:52;12.80;;;7.00;;
249;SDS011;109;19.806;-70.704;2023-03-12T05:32:25;16.10;;;8.20;;
249;SDS011;109;19.806;-70.704;2023-03-12T05:35:05;16.40;;;8.53;;
249;SDS011;109;19.806;-70.704;2023-03-12T05:37:32;14.90;;;8.90;;
249;SDS011;109;19.806;-70.704;2023-03-12T05:40:05;30.60;;;9.10;;
249;SDS011;109;19.806;-70.704;2023-03-12T05:42:32;20.67;;;8.93;;
249;SDS011;109;19.806;-70.704;2023-03-12T05:45:06;15.57;;;8.53;;
249;SDS011;109;19.806;-70.704;2023-03-12T05:47:35;17.20;;;8.10;;
249;SDS011;109;19.806;-70.704;2023-03-12T05:50:08;21.27;;;8.87;;
249;SDS011;109;19.806;-70.704;2023-03-12T05:52:36;21.17;;;10.17;;
249;SDS011;109;19.806;-70.704;2023-03-12T05:55:10;28.37;;;9.83;;
249;SDS011;109;19.806;-70.704;2023-03-12T05:57:36;23.17;;;9.67;;
249;SDS011;109;19.806;-70.704;2023-03-12T06:00:11;18.77;;;8.63;;
249;SDS011;109;19.806;-70.704;2023-03-12T06:02:46;15.27;;;9.10;;
249;SDS011;109;19.806;-70.704;2023-03-12T06:05:20;14.37;;;8.83;;
249;SDS011;109;19.806;-70.704;2023-03-12T06:07:47;23.33;;;9.07;;
249;SDS011;109;19.806;-70.704;2023-03-12T06:10:20;23.50;;;8.60;;
249;SDS011;109;19.806;-70.704;2023-03-12T06:12:46;15.83;;;9.37;;
249;SDS011;109;19.806;-70.704;2023-03-12T06:15:20;13.87;;;9.00;;
249;SDS011;109;19.806;-70.704;2023-03-12T06:17:46;14.60;;;8.40;;
249;SDS011;109;19.806;-70.704;2023-03-12T06:20:21;15.83;;;8.33;;
249;SDS011;109;19.806;-70.704;2023-03-12T06:22:48;15.13;;;8.67;;
249;SDS011;109;19.806;-70.704;2023-03-12T06:25:21;14.40;;;8.73;;
249;SDS011;109;19.806;-70.704;2023-03-12T06:27:47;17.37;;;9.80;;
249;SDS011;109;19.806;-70.704;2023-03-12T06:30:21;20.00;;;9.60;;
249;SDS011;109;19.806;-70.704;2023-03-12T06:33:07;15.13;;;9.33;;
249;SDS011;109;19.806;-70.704;2023-03-12T06:35:41;18.63;;;9.70;;
249;SDS011;109;19.806;-70.704;2023-03-12T06:38:07;14.87;;;9.90;;
249;SDS011;109;19.806;-70.704;2023-03-12T06:40:40;22.20;;;9.57;;
249;SDS011;109;19.806;-70.704;2023-03-12T06:43:06;27.73;;;10.30;;
249;SDS011;109;19.806;-70.704;2023-03-12T06:45:43;28.37;;;10.20;;
249;SDS011;109;19.806;-70.704;2023-03-12T06:48:09;35.07;;;11.03;;
249;SDS011;109;19.806;-70.704;2023-03-12T06:50:42;19.57;;;9.07;;
249;SDS011;109;19.806;-70.704;2023-03-12T06:53:08;23.83;;;9.47;;
249;SDS011;109;19.806;-70.704;2023-03-12T06:55:41;12.93;;;8.70;;
249;SDS011;109;19.806;-70.704;2023-03-12T06:58:09;18.27;;;9.70;;
249;SDS011;109;19.806;-70.704;2023-03-12T07:00:49;16.37;;;9.13;;
249;SDS011;109;19.806;-70.704;2023-03-12T07:03:23;26.37;;;11.03;;
249;SDS011;109;19.806;-70.704;2023-03-12T07:05:49;32.23;;;9.73;;
249;SDS011;109;19.806;-70.704;2023-03-12T07:08:23;32.33;;;10.03;;
249;SDS011;109;19.806;-70.704;2023-03-12T07:10:50;48.37;;;12.50;;
249;SDS011;109;19.806;-70.704;2023-03-12T07:13:24;42.30;;;12.30;;
249;SDS011;109;19.806;-70.704;2023-03-12T07:15:50;33.73;;;10.73;;
249;SDS011;109;19.806;-70.704;2023-03-12T07:18:22;42.50;;;11.70;;
249;SDS011;109;19.806;-70.704;2023-03-12T07:20:49;28.07;;;10.60;;
249;SDS011;109;19.806;-70.704;2023-03-12T07:23:23;32.47;;;10.40;;
249;SDS011;109;19.806;-70.704;2023-03-12T07:25:49;21.87;;;9.37;;
249;SDS011;109;19.806;-70.704;2023-03-12T07:28:23;19.43;;;9.60;;
249;SDS011;109;19.806;-70.704;2023-03-12T07:30:49;21.40;;;9.83;;
249;SDS011;109;19.806;-70.704;2023-03-12T07:33:22;25.13;;;10.50;;
249;SDS011;109;19.806;-70.704;2023-03-12T07:36:02;15.93;;;8.37;;
249;SDS011;109;19.806;-70.704;2023-03-12T07:38:29;23.17;;;10.40;;
249;SDS011;109;19.806;-70.704;2023-03-12T07:41:03;17.60;;;9.23;;
249;SDS011;109;19.806;-70.704;2023-03-12T07:43:29;14.83;;;9.50;;
249;SDS011;109;19.806;-70.704;2023-03-12T07:46:10;14.00;;;9.30;;
249;SDS011;109;19.806;-70.704;2023-03-12T07:48:44;15.50;;;9.47;;
249;SDS011;109;19.806;-70.704;2023-03-12T07:51:10;16.43;;;10.03;;
249;SDS011;109;19.806;-70.704;2023-03-12T07:53:43;19.27;;;9.80;;
249;SDS011;109;19.806;-70.704;2023-03-12T07:56:09;16.33;;;9.43;;
249;SDS011;109;19.806;-70.704;2023-03-12T07:58:42;11.10;;;7.77;;
249;SDS011;109;19.806;-70.704;2023-03-12T08:01:08;13.17;;;8.70;;
249;SDS011;109;19.806;-70.704;2023-03-12T08:03:41;14.03;;;8.80;;
249;SDS011;109;19.806;-70.704;2023-03-12T08:06:07;14.93;;;8.43;;
249;SDS011;109;19.806;-70.704;2023-03-12T08:08:40;13.70;;;8.93;;
249;SDS011;109;19.806;-70.704;2023-03-12T08:11:07;15.20;;;9.00;;
249;SDS011;109;19.806;-70.704;2023-03-12T08:13:41;16.37;;;8.70;;
249;SDS011;109;19.806;-70.704;2023-03-12T08:16:07;10.07;;;8.27;;
249;SDS011;109;19.806;-70.704;2023-03-12T08:18:40;15.23;;;9.03;;
249;SDS011;109;19.806;-70.704;2023-03-12T08:21:07;15.63;;;8.60;;
249;SDS011;109;19.806;-70.704;2023-03-12T08:23:41;13.10;;;8.57;;
249;SDS011;109;19.806;-70.704;2023-03-12T08:26:07;12.63;;;8.83;;
249;SDS011;109;19.806;-70.704;2023-03-12T08:28:41;11.80;;;8.47;;
249;SDS011;109;19.806;-70.704;2023-03-12T08:31:07;11.53;;;7.83;;
249;SDS011;109;19.806;-70.704;2023-03-12T08:33:41;12.80;;;8.07;;
249;SDS011;109;19.806;-70.704;2023-03-12T08:36:21;14.33;;;9.10;;
249;SDS011;109;19.806;-70.704;2023-03-12T08:38:47;23.37;;;8.47;;
249;SDS011;109;19.806;-70.704;2023-03-12T08:41:20;12.80;;;8.47;;
249;SDS011;109;19.806;-70.704;2023-03-12T08:43:54;14.33;;;8.50;;
249;SDS011;109;19.806;-70.704;2023-03-12T08:46:28;14.30;;;8.47;;
249;SDS011;109;19.806;-70.704;2023-03-12T08:48:54;13.93;;;8.50;;
249;SDS011;109;19.806;-70.704;2023-03-12T08:51:27;13.17;;;8.30;;
249;SDS011;109;19.806;-70.704;2023-03-12T08:53:53;14.93;;;8.30;;
249;SDS011;109;19.806;-70.704;2023-03-12T08:56:26;17.33;;;8.43;;
249;SDS011;109;19.806;-70.704;2023-03-12T08:58:52;13.00;;;8.50;;
249;SDS011;109;19.806;-70.704;2023-03-12T09:01:25;10.50;;;8.80;;
249;SDS011;109;19.806;-70.704;2023-03-12T09:03:51;15.93;;;8.90;;
249;SDS011;109;19.806;-70.704;2023-03-12T09:06:26;11.83;;;8.23;;
249;SDS011;109;19.806;-70.704;2023-03-12T09:08:52;17.50;;;8.50;;
249;SDS011;109;19.806;-70.704;2023-03-12T09:11:26;20.63;;;8.50;;
249;SDS011;109;19.806;-70.704;2023-03-12T09:13:52;15.23;;;8.53;;
249;SDS011;109;19.806;-70.704;2023-03-12T09:16:25;19.83;;;9.27;;
249;SDS011;109;19.806;-70.704;2023-03-12T09:18:51;16.50;;;8.47;;
249;SDS011;109;19.806;-70.704;2023-03-12T09:21:32;12.97;;;8.33;;
249;SDS011;109;19.806;-70.704;2023-03-12T09:24:06;15.00;;;9.00;;
249;SDS011;109;19.806;-70.704;2023-03-12T09:26:33;15.93;;;9.27;;
249;SDS011;109;19.806;-70.704;2023-03-12T09:29:06;12.40;;;8.20;;
249;SDS011;109;19.806;-70.704;2023-03-12T09:31:32;15.20;;;8.33;;
249;SDS011;109;19.806;-70.704;2023-03-12T09:34:18;10.03;;;6.97;;
249;SDS011;109;19.806;-70.704;2023-03-12T09:36:52;14.07;;;8.27;;
249;SDS011;109;19.806;-70.704;2023-03-12T09:39:18;14.83;;;8.37;;
249;SDS011;109;19.806;-70.704;2023-03-12T09:41:53;18.93;;;8.13;;
249;SDS011;109;19.806;-70.704;2023-03-12T09:47:19;11.80;;;8.50;;
249;SDS011;109;19.806;-70.704;2023-03-12T09:50:22;15.40;;;8.13;;
249;SDS011;109;19.806;-70.704;2023-03-12T09:53:10;11.70;;;7.40;;
249;SDS011;109;19.806;-70.704;2023-03-12T09:56:04;11.80;;;7.00;;
249;SDS011;109;19.806;-70.704;2023-03-12T09:58:41;12.77;;;7.67;;
249;SDS011;109;19.806;-70.704;2023-03-12T10:21:34;13.70;;;7.47;;
249;SDS011;109;19.806;-70.704;2023-03-12T10:27:18;12.27;;;7.50;;
249;SDS011;109;19.806;-70.704;2023-03-12T10:33:59;11.57;;;7.20;;
249;SDS011;109;19.806;-70.704;2023-03-12T10:36:42;13.20;;;7.57;;
249;SDS011;109;19.806;-70.704;2023-03-12T10:39:17;12.17;;;7.40;;
249;SDS011;109;19.806;-70.704;2023-03-12T10:41:51;14.60;;;8.43;;
249;SDS011;109;19.806;-70.704;2023-03-12T10:44:21;15.93;;;7.60;;
249;SDS011;109;19.806;-70.704;2023-03-12T10:49:48;11.37;;;7.50;;
249;SDS011;109;19.806;-70.704;2023-03-12T10:54:44;14.53;;;7.37;;
249;SDS011;109;19.806;-70.704;2023-03-12T10:57:16;11.73;;;7.70;;
249;SDS011;109;19.806;-70.704;2023-03-12T10:59:45;21.63;;;7.70;;
249;SDS011;109;19.806;-70.704;2023-03-12T11:05:29;19.37;;;7.20;;
249;SDS011;109;19.806;-70.704;2023-03-12T11:07:58;14.97;;;8.00;;
249;SDS011;109;19.806;-70.704;2023-03-12T11:18:59;18.93;;;7.37;;
249;SDS011;109;19.806;-70.704;2023-03-12T11:21:29;16.47;;;8.27;;
249;SDS011;109;19.806;-70.704;2023-03-12T11:31:48;11.70;;;7.13;;
249;SDS011;109;19.806;-70.704;2023-03-12T11:34:32;14.60;;;6.83;;
249;SDS011;109;19.806;-70.704;2023-03-12T11:51:14;14.50;;;7.50;;
249;SDS011;109;19.806;-70.704;2023-03-12T11:57:00;12.47;;;7.93;;
249;SDS011;109;19.806;-70.704;2023-03-12T12:05:55;15.77;;;7.70;;
249;SDS011;109;19.806;-70.704;2023-03-12T12:11:51;22.33;;;8.13;;
249;SDS011;109;19.806;-70.704;2023-03-12T12:14:37;16.27;;;8.10;;
249;SDS011;109;19.806;-70.704;2023-03-12T12:19:59;21.77;;;7.97;;
249;SDS011;109;19.806;-70.704;2023-03-12T12:22:45;18.67;;;12.10;;
249;SDS011;109;19.806;-70.704;2023-03-12T12:25:32;33.33;;;17.60;;
249;SDS011;109;19.806;-70.704;2023-03-12T12:31:16;31.83;;;17.00;;
249;SDS011;109;19.806;-70.704;2023-03-12T12:33:49;26.13;;;13.60;;
249;SDS011;109;19.806;-70.704;2023-03-12T12:36:27;20.87;;;11.77;;
249;SDS011;109;19.806;-70.704;2023-03-12T12:38:58;20.30;;;10.00;;
249;SDS011;109;19.806;-70.704;2023-03-12T12:41:40;17.77;;;10.33;;
249;SDS011;109;19.806;-70.704;2023-03-12T12:44:15;16.20;;;8.83;;
249;SDS011;109;19.806;-70.704;2023-03-12T12:46:58;15.50;;;8.80;;
249;SDS011;109;19.806;-70.704;2023-03-12T12:49:35;16.20;;;9.07;;
249;SDS011;109;19.806;-70.704;2023-03-12T12:52:12;18.03;;;8.03;;
249;SDS011;109;19.806;-70.704;2023-03-12T12:57:43;16.47;;;9.27;;
249;SDS011;109;19.806;-70.704;2023-03-12T13:02:55;20.03;;;7.07;;
249;SDS011;109;19.806;-70.704;2023-03-12T13:05:26;15.60;;;6.60;;
249;SDS011;109;19.806;-70.704;2023-03-12T13:08:09;14.47;;;5.93;;
249;SDS011;109;19.806;-70.704;2023-03-12T13:11:01;13.97;;;6.87;;
249;SDS011;109;19.806;-70.704;2023-03-12T13:14:10;24.23;;;7.70;;
249;SDS011;109;19.806;-70.704;2023-03-12T13:16:43;18.87;;;6.80;;
249;SDS011;109;19.806;-70.704;2023-03-12T13:21:39;38.63;;;8.20;;
249;SDS011;109;19.806;-70.704;2023-03-12T13:24:25;18.47;;;7.07;;
249;SDS011;109;19.806;-70.704;2023-03-12T13:27:13;23.57;;;7.20;;
249;SDS011;109;19.806;-70.704;2023-03-12T13:29:45;20.27;;;5.87;;
249;SDS011;109;19.806;-70.704;2023-03-12T13:35:44;41.20;;;7.97;;
249;SDS011;109;19.806;-70.704;2023-03-12T13:37:57;38.40;;;8.30;;
249;SDS011;109;19.806;-70.704;2023-03-12T13:43:07;38.60;;;8.57;;
249;SDS011;109;19.806;-70.704;2023-03-12T13:48:34;22.10;;;7.37;;
249;SDS011;109;19.806;-70.704;2023-03-12T13:51:18;38.60;;;9.17;;
249;SDS011;109;19.806;-70.704;2023-03-12T13:53:51;57.73;;;9.17;;
249;SDS011;109;19.806;-70.704;2023-03-12T13:56:27;48.57;;;9.10;;
249;SDS011;109;19.806;-70.704;2023-03-12T13:59:01;31.60;;;7.97;;
249;SDS011;109;19.806;-70.704;2023-03-12T14:01:34;28.33;;;7.30;;
249;SDS011;109;19.806;-70.704;2023-03-12T14:04:06;32.93;;;6.90;;
249;SDS011;109;19.806;-70.704;2023-03-12T14:10:02;17.73;;;7.20;;
249;SDS011;109;19.806;-70.704;2023-03-12T14:15:36;29.47;;;7.20;;
249;SDS011;109;19.806;-70.704;2023-03-12T14:18:26;23.53;;;7.07;;
249;SDS011;109;19.806;-70.704;2023-03-12T14:20:56;17.33;;;6.50;;
249;SDS011;109;19.806;-70.704;2023-03-12T14:23:26;29.67;;;8.10;;
249;SDS011;109;19.806;-70.704;2023-03-12T14:26:04;18.63;;;6.60;;
249;SDS011;109;19.806;-70.704;2023-03-12T14:28:31;25.73;;;6.90;;
249;SDS011;109;19.806;-70.704;2023-03-12T14:31:06;24.20;;;6.37;;
249;SDS011;109;19.806;-70.704;2023-03-12T14:33:48;29.07;;;7.20;;
249;SDS011;109;19.806;-70.704;2023-03-12T14:36:16;40.17;;;7.87;;
249;SDS011;109;19.806;-70.704;2023-03-12T14:38:45;29.63;;;7.37;;
249;SDS011;109;19.806;-70.704;2023-03-12T14:41:20;38.90;;;8.50;;
249;SDS011;109;19.806;-70.704;2023-03-12T14:43:53;20.50;;;6.77;;
249;SDS011;109;19.806;-70.704;2023-03-12T14:46:30;25.33;;;7.20;;
249;SDS011;109;19.806;-70.704;2023-03-12T14:48:56;36.07;;;7.03;;
249;SDS011;109;19.806;-70.704;2023-03-12T14:51:25;33.57;;;8.10;;
249;SDS011;109;19.806;-70.704;2023-03-12T14:53:53;42.53;;;8.07;;
249;SDS011;109;19.806;-70.704;2023-03-12T14:56:27;46.03;;;7.70;;
249;SDS011;109;19.806;-70.704;2023-03-12T14:59:00;33.97;;;8.97;;
249;SDS011;109;19.806;-70.704;2023-03-12T15:01:45;43.67;;;7.67;;
249;SDS011;109;19.806;-70.704;2023-03-12T15:04:13;39.90;;;7.90;;
249;SDS011;109;19.806;-70.704;2023-03-12T15:06:54;53.97;;;8.10;;
249;SDS011;109;19.806;-70.704;2023-03-12T15:09:27;40.27;;;7.90;;
249;SDS011;109;19.806;-70.704;2023-03-12T15:14:44;28.20;;;6.70;;
249;SDS011;109;19.806;-70.704;2023-03-12T15:17:20;31.80;;;6.90;;
249;SDS011;109;19.806;-70.704;2023-03-12T15:19:51;32.10;;;7.83;;
249;SDS011;109;19.806;-70.704;2023-03-12T15:22:20;30.43;;;6.90;;
249;SDS011;109;19.806;-70.704;2023-03-12T15:24:49;38.80;;;7.77;;
249;SDS011;109;19.806;-70.704;2023-03-12T15:29:55;38.33;;;8.93;;
249;SDS011;109;19.806;-70.704;2023-03-12T15:32:23;37.57;;;8.43;;
249;SDS011;109;19.806;-70.704;2023-03-12T15:34:51;33.20;;;8.30;;
249;SDS011;109;19.806;-70.704;2023-03-12T15:37:32;35.17;;;7.60;;
249;SDS011;109;19.806;-70.704;2023-03-12T15:40:07;38.37;;;7.17;;
249;SDS011;109;19.806;-70.704;2023-03-12T15:42:46;36.93;;;8.50;;
249;SDS011;109;19.806;-70.704;2023-03-12T15:50:48;46.47;;;8.63;;
249;SDS011;109;19.806;-70.704;2023-03-12T15:55:41;19.13;;;6.43;;
249;SDS011;109;19.806;-70.704;2023-03-12T15:58:37;44.03;;;8.97;;
249;SDS011;109;19.806;-70.704;2023-03-12T16:01:16;36.83;;;8.23;;
249;SDS011;109;19.806;-70.704;2023-03-12T16:03:48;31.53;;;7.57;;
249;SDS011;109;19.806;-70.704;2023-03-12T16:06:16;34.90;;;8.20;;
249;SDS011;109;19.806;-70.704;2023-03-12T16:08:45;40.43;;;8.67;;
249;SDS011;109;19.806;-70.704;2023-03-12T16:11:19;34.90;;;8.00;;
249;SDS011;109;19.806;-70.704;2023-03-12T16:13:51;25.17;;;6.20;;
249;SDS011;109;19.806;-70.704;2023-03-12T16:16:24;26.03;;;7.50;;
249;SDS011;109;19.806;-70.704;2023-03-12T16:18:50;16.13;;;6.47;;
249;SDS011;109;19.806;-70.704;2023-03-12T16:21:17;23.77;;;7.43;;
249;SDS011;109;19.806;-70.704;2023-03-12T16:23:43;26.13;;;6.57;;
249;SDS011;109;19.806;-70.704;2023-03-12T16:26:10;17.97;;;6.40;;
249;SDS011;109;19.806;-70.704;2023-03-12T16:28:40;20.10;;;6.03;;
249;SDS011;109;19.806;-70.704;2023-03-12T16:31:14;34.43;;;6.97;;
249;SDS011;109;19.806;-70.704;2023-03-12T16:33:41;18.70;;;7.10;;
249;SDS011;109;19.806;-70.704;2023-03-12T16:36:13;18.37;;;5.03;;
249;SDS011;109;19.806;-70.704;2023-03-12T16:38:42;34.33;;;8.30;;
249;SDS011;109;19.806;-70.704;2023-03-12T16:41:10;48.73;;;9.10;;
249;SDS011;109;19.806;-70.704;2023-03-12T16:43:42;24.73;;;6.20;;
249;SDS011;109;19.806;-70.704;2023-03-12T16:46:14;26.57;;;6.27;;
249;SDS011;109;19.806;-70.704;2023-03-12T16:48:43;22.63;;;6.30;;
249;SDS011;109;19.806;-70.704;2023-03-12T16:51:14;20.80;;;5.97;;
249;SDS011;109;19.806;-70.704;2023-03-12T16:53:41;33.53;;;7.40;;
249;SDS011;109;19.806;-70.704;2023-03-12T16:56:10;32.43;;;8.40;;
249;SDS011;109;19.806;-70.704;2023-03-12T16:58:44;18.10;;;7.43;;
249;SDS011;109;19.806;-70.704;2023-03-12T17:01:14;30.63;;;7.30;;
249;SDS011;109;19.806;-70.704;2023-03-12T17:03:45;27.30;;;7.40;;
249;SDS011;109;19.806;-70.704;2023-03-12T17:06:15;44.30;;;7.67;;
249;SDS011;109;19.806;-70.704;2023-03-12T17:08:46;23.63;;;6.70;;
249;SDS011;109;19.806;-70.704;2023-03-12T17:11:16;20.63;;;6.00;;
249;SDS011;109;19.806;-70.704;2023-03-12T17:13:46;22.57;;;6.40;;
249;SDS011;109;19.806;-70.704;2023-03-12T17:16:18;26.90;;;6.70;;
249;SDS011;109;19.806;-70.704;2023-03-12T17:18:44;20.17;;;6.60;;
249;SDS011;109;19.806;-70.704;2023-03-12T17:21:11;31.00;;;7.00;;
249;SDS011;109;19.806;-70.704;2023-03-12T17:23:39;33.13;;;7.33;;
249;SDS011;109;19.806;-70.704;2023-03-12T17:26:06;23.17;;;6.17;;
249;SDS011;109;19.806;-70.704;2023-03-12T17:28:34;44.00;;;8.13;;
249;SDS011;109;19.806;-70.704;2023-03-12T17:31:00;20.83;;;6.20;;
249;SDS011;109;19.806;-70.704;2023-03-12T17:33:28;31.90;;;7.70;;
249;SDS011;109;19.806;-70.704;2023-03-12T17:35:56;27.20;;;7.00;;
249;SDS011;109;19.806;-70.704;2023-03-12T17:38:23;24.97;;;6.47;;
249;SDS011;109;19.806;-70.704;2023-03-12T17:40:50;16.43;;;6.67;;
249;SDS011;109;19.806;-70.704;2023-03-12T17:43:17;17.67;;;6.13;;